EST,Max TemperatureF,Mean TemperatureF,Min TemperatureF,Max Dew PointF,MeanDew PointF,Min DewpointF,Max Humidity, Mean Humidity, Min Humidity, Max Sea Level PressureIn, Mean Sea Level PressureIn, Min Sea Level PressureIn, Max VisibilityMiles, Mean VisibilityMiles, Min VisibilityMiles, Max Wind SpeedMPH, Mean Wind SpeedMPH, Max Gust SpeedMPH,PrecipitationIn, CloudCover, Events, WindDirDegrees
2014-1-1,33,27,21,20,15,8,68,59,50,30.40,30.33,30.23,10,10,10,6,3,,0.00,4,,250
2014-1-2,30,24,17,21,18,13,89,77,59,30.21,29.90,29.67,10,6,1,14,7,22,0.00,8,Snow,31
2014-1-3,18,10,0,12,3,-7,88,62,42,30.48,30.06,29.67,10,4,0,25,12,36,0.00,3,Fog-Snow,335
2014-1-4,26,10,-7,9,-1,-12,88,68,37,30.54,30.43,30.32,10,10,6,7,1,,0.00,0,,183
2014-1-5,35,17,0,34,22,-4,100,89,78,30.32,30.13,29.73,10,4,0,7,2,,0.01,7,Fog-Rain,16
2014-1-6,55,36,12,55,34,-8,100,80,41,29.83,29.53,29.39,10,5,0,20,7,39,0.25,6,Fog-Rain,263
2014-1-7,9,5,1,-9,-13,-16,46,42,38,30.33,30.16,29.88,10,10,10,16,13,31,0.00,0,,285
2014-1-8,19,17,15,9,5,-1,70,58,42,30.54,30.52,30.49,10,10,10,6,2,,0.00,4,,290
2014-1-9,33,22,12,15,11,8,85,64,35,30.66,30.60,30.51,10,10,8,6,1,,0.00,1,,330
2014-1-10,34,28,21,33,27,16,96,88,75,30.57,30.39,30.20,10,4,0,6,1,,0.15,8,Fog-Rain-Snow,340
2014-1-11,62,48,33,60,47,33,100,96,82,30.18,29.70,29.31,10,4,0,13,4,18,0.61,8,Fog-Rain,191
2014-1-12,48,39,27,41,29,25,92,62,49,30.08,29.80,29.44,10,10,10,13,8,29,0.00,4,,285
2014-1-13,54,39,24,35,30,23,96,73,47,30.14,30.03,29.88,10,9,7,6,2,,0.00,0,,164
2014-1-14,45,38,30,44,40,31,100,95,82,29.86,29.75,29.68,10,3,0,5,1,,0.26,7,Fog-Rain,302
2014-1-15,44,36,28,40,35,28,100,95,79,30.01,29.92,29.85,10,3,0,6,1,,0.00,8,Fog-Rain,322
2014-1-16,39,33,27,33,30,25,93,85,76,29.96,29.91,29.85,10,8,2,8,3,,0.00,6,,307
2014-1-17,42,30,19,29,25,18,96,80,49,29.99,29.94,29.87,10,8,2,5,1,,0.00,0,,317
2014-1-18,37,31,24,32,26,12,92,78,58,29.88,29.77,29.70,10,7,1,12,4,22,0.06,7,Rain-Snow,299
2014-1-19,35,28,21,22,16,11,69,61,53,29.87,29.76,29.67,10,10,10,8,4,17,0.00,4,,235
2014-1-20,45,36,28,28,24,19,82,61,46,29.89,29.70,29.60,10,10,10,10,3,,0.00,4,,282
2014-1-21,28,20,12,18,10,-2,93,74,46,29.99,29.91,29.85,10,2,0,15,9,24,0.00,7,Fog-Snow,17
2014-1-22,17,10,3,-1,-7,-11,58,45,34,30.03,29.88,29.82,10,6,1,17,12,25,0.00,1,Snow,328
2014-1-23,19,7,-5,3,-3,-9,84,63,44,30.32,30.18,30.04,10,10,10,9,3,23,0.00,1,,291
2014-1-24,19,6,-7,1,-5,-12,79,55,36,30.42,30.30,30.08,10,10,8,12,4,20,0.00,0,,262
2014-1-25,24,16,6,20,13,1,92,77,46,30.03,29.59,29.45,10,5,0,12,5,18,0.00,5,Fog-Snow,197
2014-1-26,24,19,14,16,6,-4,81,55,36,29.92,29.81,29.53,10,10,8,13,6,25,0.00,4,,270
2014-1-27,39,28,18,24,11,-3,81,57,31,30.11,29.80,29.63,10,10,10,17,5,33,0.00,3,,307
2014-1-28,17,14,10,2,-5,-11,56,44,28,30.39,30.30,30.12,10,10,6,9,5,17,0.00,3,Snow,310
2014-1-29,21,14,6,9,1,-9,85,62,28,30.31,30.20,30.13,10,7,2,10,2,18,0.00,3,Snow,275
2014-1-30,27,10,-6,4,-2,-11,84,62,33,30.48,30.36,30.21,10,10,9,7,1,,0.00,0,,240
2014-1-31,36,23,10,20,13,3,77,62,41,30.24,30.17,30.11,10,10,7,7,1,,0.00,5,,316